Time;durP1;ratioP1;P1;durP2;ratioP2;P2;SDS_P1;SDS_P2;PMS_P1;PMS_P2;Temp;Humidity;BMP_temperature;BMP_pressure;BME280_temperature;BME280_humidity;BME280_pressure;Samples;Min_cycle;Max_cycle;Signal;HPM_P1;HPM_P2
2023/06/25 00:02:22;;;;;;;6.30;5.50;;;29.30;56.00;;;;;;4993999;28;20508;-83
2023/06/25 00:04:48;;;;;;;5.97;5.57;;;29.30;56.00;;;;;;4961996;28;20437;-82
2023/06/25 00:07:17;;;;;;;6.37;5.87;;;29.20;56.00;;;;;;4982947;28;20456;-84
2023/06/25 00:09:55;;;;;;;5.30;4.90;;;29.20;56.00;;;;;;4977916;28;20178;-83
2023/06/25 00:12:22;;;;;;;4.80;4.43;;;29.20;56.00;;;;;;4965401;28;20431;-82
2023/06/25 00:14:53;;;;;;;7.37;5.30;;;29.20;56.00;;;;;;4997191;28;20444;-82
2023/06/25 00:17:27;;;;;;;6.90;6.30;;;29.20;56.10;;;;;;4965055;28;20439;-83
2023/06/25 00:19:57;;;;;;;5.90;5.40;;;29.10;56.10;;;;;;5014554;28;20452;-83
2023/06/25 00:22:30;;;;;;;5.70;5.20;;;29.10;56.10;;;;;;5014563;28;20424;-83
2023/06/25 00:25:01;;;;;;;5.30;4.90;;;29.10;56.10;;;;;;4967917;28;20828;-84
2023/06/25 00:27:31;;;;;;;6.10;5.60;;;29.10;56.10;;;;;;4950374;28;20481;-82
2023/06/25 00:30:00;;;;;;;5.50;5.00;;;29.00;56.10;;;;;;4973130;28;20436;-83
2023/06/25 00:32:26;;;;;;;5.53;5.10;;;29.00;56.20;;;;;;4980976;28;20826;-83
2023/06/25 00:35:02;;;;;;;6.63;4.80;;;29.00;56.20;;;;;;4980734;28;20428;-83
2023/06/25 00:37:28;;;;;;;5.13;4.40;;;29.00;56.20;;;;;;4980954;28;20529;-83
2023/06/25 00:39:58;;;;;;;5.70;5.23;;;29.00;56.20;;;;;;4983937;28;20447;-83
2023/06/25 00:42:23;;;;;;;5.77;5.27;;;28.90;56.20;;;;;;4981012;28;20444;-83
2023/06/25 00:44:49;;;;;;;5.33;4.83;;;28.90;56.20;;;;;;5014399;28;20409;-83
2023/06/25 00:47:22;;;;;;;6.33;4.90;;;28.90;56.20;;;;;;4971224;28;20466;-82
2023/06/25 00:49:48;;;;;;;5.80;5.30;;;28.90;56.30;;;;;;4978781;28;20435;-83
2023/06/25 00:52:19;;;;;;;6.33;5.83;;;28.80;56.20;;;;;;5013699;28;20792;-83
2023/06/25 00:54:45;;;;;;;5.60;5.13;;;28.80;56.20;;;;;;4981212;28;20453;-84
2023/06/25 00:57:11;;;;;;;5.27;4.87;;;28.80;56.30;;;;;;4970667;28;20760;-83
2023/06/25 00:59:43;;;;;;;6.00;5.30;;;28.80;56.30;;;;;;5000500;28;20440;-83
2023/06/25 01:02:23;;;;;;;5.83;5.33;;;28.80;56.30;;;;;;4983145;28;20762;-83
2023/06/25 01:05:06;;;;;;;5.70;5.20;;;28.80;56.30;;;;;;4981381;28;20416;-83
2023/06/25 01:07:36;;;;;;;5.90;5.30;;;28.70;56.30;;;;;;4984544;28;20451;-83
2023/06/25 01:10:07;;;;;;;7.00;5.00;;;28.70;56.30;;;;;;5000618;28;20519;-83
2023/06/25 01:12:33;;;;;;;5.83;5.10;;;28.70;56.40;;;;;;4994950;28;20805;-83
2023/06/25 01:15:01;;;;;;;6.30;5.40;;;28.70;56.40;;;;;;4964996;28;20420;-83
2023/06/25 01:17:29;;;;;;;6.03;5.43;;;28.70;56.40;;;;;;4980753;28;20449;-82
2023/06/25 01:19:57;;;;;;;8.63;5.00;;;28.60;56.40;;;;;;4965080;28;20455;-83
2023/06/25 01:22:32;;;;;;;6.13;5.53;;;28.60;56.50;;;;;;4968359;28;20506;-83
2023/06/25 01:25:00;;;;;;;5.70;5.20;;;28.60;56.50;;;;;;4984449;28;20400;-83
2023/06/25 01:27:26;;;;;;;6.43;5.87;;;28.60;56.50;;;;;;5017276;28;20808;-84
2023/06/25 01:29:53;;;;;;;7.03;5.67;;;28.50;56.50;;;;;;5017300;28;20424;-83
2023/06/25 01:32:24;;;;;;;6.00;5.40;;;28.50;56.50;;;;;;4999787;28;20515;-82
2023/06/25 01:34:53;;;;;;;6.67;5.83;;;28.50;56.50;;;;;;5017073;28;20475;-83
2023/06/25 01:37:30;;;;;;;6.13;5.53;;;28.50;56.50;;;;;;4999830;28;20425;-83
2023/06/25 01:39:58;;;;;;;5.93;5.30;;;28.50;56.50;;;;;;4999950;28;20983;-83
2023/06/25 01:42:29;;;;;;;6.50;5.17;;;28.40;56.50;;;;;;5012609;28;20609;-83
2023/06/25 01:44:55;;;;;;;6.13;5.53;;;28.40;56.60;;;;;;4960996;28;21044;-82
2023/06/25 01:47:23;;;;;;;8.10;5.10;;;28.40;56.60;;;;;;4945302;28;20218;-83
2023/06/25 01:49:49;;;;;;;7.03;5.00;;;28.40;56.60;;;;;;4949675;28;20507;-83
2023/06/25 01:52:15;;;;;;;6.43;5.93;;;28.30;56.50;;;;;;4985911;28;20284;-83
2023/06/25 01:54:43;;;;;;;5.43;4.93;;;28.30;56.60;;;;;;4980094;28;20276;-83
2023/06/25 01:57:14;;;;;;;5.30;4.90;;;28.30;56.60;;;;;;4980071;28;20175;-83
2023/06/25 01:59:40;;;;;;;4.90;4.57;;;28.30;56.70;;;;;;4948734;28;20440;-83
2023/06/25 02:02:06;;;;;;;6.10;5.50;;;28.30;56.70;;;;;;4980620;28;20425;-83
2023/06/25 02:04:35;;;;;;;5.57;5.17;;;28.20;56.70;;;;;;4979863;28;20425;-83
2023/06/25 02:07:00;;;;;;;6.43;5.87;;;28.20;56.70;;;;;;4964027;28;20531;-83
2023/06/25 02:09:27;;;;;;;6.13;5.47;;;28.20;56.70;;;;;;4998943;28;20531;-83
2023/06/25 02:11:52;;;;;;;7.23;5.27;;;28.20;56.80;;;;;;4983595;28;20424;-83
2023/06/25 02:14:18;;;;;;;6.13;5.57;;;28.20;56.80;;;;;;4983137;28;20423;-84
2023/06/25 02:16:44;;;;;;;7.40;6.10;;;28.20;56.80;;;;;;4985169;28;20446;-83
2023/06/25 02:19:11;;;;;;;6.50;5.60;;;28.10;56.80;;;;;;5018486;28;20510;-83
2023/06/25 02:21:39;;;;;;;6.30;5.70;;;28.10;56.80;;;;;;5001506;28;20634;-83
2023/06/25 02:24:10;;;;;;;7.87;5.60;;;28.10;56.80;;;;;;4985084;28;20502;-83
2023/06/25 02:26:43;;;;;;;6.27;5.30;;;28.10;56.90;;;;;;4948231;28;20466;-82
2023/06/25 02:29:14;;;;;;;6.57;5.97;;;28.00;56.80;;;;;;5001390;28;20413;-83
2023/06/25 02:31:42;;;;;;;6.30;5.40;;;28.00;56.90;;;;;;4985272;28;20455;-83
2023/06/25 02:34:09;;;;;;;6.47;5.70;;;28.00;56.90;;;;;;4969716;28;20405;-82
2023/06/25 02:36:38;;;;;;;6.20;5.37;;;28.00;56.90;;;;;;5004889;28;20518;-83
2023/06/25 02:39:05;;;;;;;6.03;5.40;;;28.00;57.00;;;;;;4988904;28;20452;-83
2023/06/25 02:41:31;;;;;;;7.80;5.93;;;28.00;57.00;;;;;;4988913;28;20431;-83
2023/06/25 02:43:58;;;;;;;5.90;5.40;;;27.90;56.90;;;;;;4973084;28;20444;-83
2023/06/25 02:46:24;;;;;;;6.30;5.70;;;27.90;57.00;;;;;;5021394;28;20432;-83
2023/06/25 02:48:50;;;;;;;7.60;5.53;;;27.90;57.00;;;;;;4988721;28;20429;-83
2023/06/25 02:51:19;;;;;;;9.13;5.90;;;27.90;57.00;;;;;;5021985;28;20420;-83
2023/06/25 02:53:45;;;;;;;10.27;4.90;;;27.90;57.00;;;;;;5009672;28;20443;-84
2023/06/25 02:56:15;;;;;;;8.27;5.80;;;27.90;57.00;;;;;;5031101;28;20401;-83
2023/06/25 02:58:43;;;;;;;6.20;5.00;;;27.80;57.00;;;;;;4977540;28;20435;-83
2023/06/25 03:01:12;;;;;;;6.60;5.43;;;27.80;57.00;;;;;;4988078;28;20248;-85
2023/06/25 03:03:38;;;;;;;8.60;5.47;;;27.80;57.10;;;;;;4972561;28;20433;-83
2023/06/25 03:06:07;;;;;;;5.80;5.10;;;27.80;57.10;;;;;;4997366;28;20488;-83
2023/06/25 03:08:33;;;;;;;7.30;5.37;;;27.70;57.00;;;;;;4963231;28;20789;-82
2023/06/25 03:11:00;;;;;;;5.83;5.30;;;27.70;57.10;;;;;;4947828;28;20492;-83
2023/06/25 03:13:26;;;;;;;6.53;5.83;;;27.70;57.10;;;;;;4979308;28;20824;-83
2023/06/25 03:15:52;;;;;;;6.10;5.50;;;27.70;57.10;;;;;;4978834;28;20206;-83
2023/06/25 03:18:20;;;;;;;7.23;5.40;;;27.60;57.00;;;;;;4963019;28;20248;-83
2023/06/25 03:20:48;;;;;;;6.17;5.23;;;27.70;57.10;;;;;;4962977;28;20166;-83
2023/06/25 03:23:16;;;;;;;5.90;5.40;;;27.70;57.10;;;;;;4962797;28;20448;-83
2023/06/25 03:25:45;;;;;;;6.33;5.73;;;27.60;57.10;;;;;;4947421;28;20466;-83
2023/06/25 03:28:20;;;;;;;5.60;5.10;;;27.60;57.10;;;;;;4962341;28;20786;-83
2023/06/25 03:30:47;;;;;;;6.50;5.80;;;27.60;57.10;;;;;;4946784;28;20508;-82
2023/06/25 03:33:15;;;;;;;7.13;5.30;;;27.60;57.10;;;;;;4962717;28;20430;-83
2023/06/25 03:35:41;;;;;;;6.57;5.23;;;27.60;57.20;;;;;;4962238;28;20457;-83
2023/06/25 03:38:10;;;;;;;7.70;5.63;;;27.50;57.10;;;;;;4970510;28;20625;-82
2023/06/25 03:40:38;;;;;;;5.57;4.97;;;27.50;57.20;;;;;;4981832;28;20425;-83
2023/06/25 03:43:07;;;;;;;8.50;5.80;;;27.50;57.20;;;;;;4982287;28;20431;-82
2023/06/25 03:45:36;;;;;;;5.93;5.33;;;27.40;57.10;;;;;;4991005;28;20448;-83
2023/06/25 03:48:05;;;;;;;12.43;5.10;;;27.40;57.20;;;;;;4976269;28;20472;-82
2023/06/25 03:50:31;;;;;;;10.60;5.87;;;27.40;57.20;;;;;;4970591;28;20418;-82
2023/06/25 03:53:00;;;;;;;5.37;4.90;;;27.40;57.20;;;;;;4953328;28;20458;-82
2023/06/25 03:55:29;;;;;;;5.77;5.27;;;27.40;57.20;;;;;;4966859;28;20445;-82
2023/06/25 03:57:56;;;;;;;6.90;6.07;;;27.40;57.30;;;;;;4972517;28;20444;-82
2023/06/25 04:00:24;;;;;;;5.90;5.40;;;27.30;57.30;;;;;;4981866;28;20928;-84
2023/06/25 04:02:52;;;;;;;6.47;5.40;;;27.30;57.30;;;;;;5015064;28;20416;-83
2023/06/25 04:05:18;;;;;;;7.00;5.60;;;27.30;57.30;;;;;;4962876;28;20477;-83
2023/06/25 04:07:51;;;;;;;6.50;5.80;;;27.30;57.40;;;;;;4965513;28;20551;-83
2023/06/25 04:10:19;;;;;;;6.40;5.80;;;27.30;57.40;;;;;;4961861;28;20449;-83
2023/06/25 04:12:46;;;;;;;7.40;5.47;;;27.20;57.40;;;;;;4977955;28;20417;-82
2023/06/25 04:15:12;;;;;;;8.03;5.20;;;27.30;57.50;;;;;;4962021;28;20812;-82
2023/06/25 04:17:39;;;;;;;6.07;5.47;;;27.30;57.50;;;;;;4961962;28;20495;-83
2023/06/25 04:20:06;;;;;;;9.63;5.90;;;27.20;57.50;;;;;;4942805;28;20509;-83
2023/06/25 04:22:33;;;;;;;7.13;5.27;;;27.20;57.50;;;;;;4960188;28;20477;-83
2023/06/25 04:25:02;;;;;;;7.13;5.57;;;27.20;57.50;;;;;;4946165;28;20444;-83
2023/06/25 04:27:28;;;;;;;6.57;5.50;;;27.10;57.50;;;;;;4981150;28;20453;-82
2023/06/25 04:29:54;;;;;;;7.47;5.50;;;27.20;57.60;;;;;;4978806;28;20523;-83
2023/06/25 04:32:21;;;;;;;6.50;5.83;;;27.10;57.60;;;;;;5001302;28;20463;-83
2023/06/25 04:34:49;;;;;;;5.93;5.40;;;27.10;57.60;;;;;;4946851;28;20541;-83
2023/06/25 04:37:17;;;;;;;6.87;5.30;;;27.10;57.70;;;;;;4979972;28;20298;-84
2023/06/25 04:39:45;;;;;;;6.50;5.73;;;27.10;57.70;;;;;;5001245;28;20459;-83
2023/06/25 04:42:14;;;;;;;5.60;5.10;;;27.10;57.80;;;;;;5001103;28;20412;-83
2023/06/25 04:44:40;;;;;;;7.20;5.33;;;27.00;57.80;;;;;;4976223;28;20441;-83
2023/06/25 04:47:08;;;;;;;8.53;5.70;;;27.00;57.80;;;;;;4984712;28;20471;-83
2023/06/25 04:49:36;;;;;;;8.73;5.37;;;27.10;58.00;;;;;;5000881;28;20810;-83
2023/06/25 04:52:02;;;;;;;7.60;6.50;;;27.00;58.00;;;;;;4968725;28;20440;-83
2023/06/25 04:54:28;;;;;;;6.10;5.60;;;27.00;58.00;;;;;;4984186;28;21040;-82
2023/06/25 04:56:54;;;;;;;6.63;6.00;;;27.00;58.10;;;;;;4983936;28;20546;-83
2023/06/25 04:59:19;;;;;;;6.77;5.47;;;27.00;58.10;;;;;;5013286;28;20178;-83
2023/06/25 05:01:48;;;;;;;10.20;5.70;;;27.00;58.20;;;;;;4989141;28;20277;-82
2023/06/25 05:04:18;;;;;;;6.80;5.77;;;27.00;58.30;;;;;;5000345;28;20416;-83
2023/06/25 05:06:46;;;;;;;6.00;5.47;;;27.00;58.40;;;;;;5004765;28;20472;-83
2023/06/25 05:09:12;;;;;;;7.80;6.37;;;27.00;58.40;;;;;;4969274;28;20457;-83
2023/06/25 05:11:38;;;;;;;6.87;5.77;;;26.90;58.50;;;;;;4981360;28;20907;-83
2023/06/25 05:14:04;;;;;;;6.10;5.60;;;26.90;58.50;;;;;;4980918;28;20957;-83
2023/06/25 05:16:29;;;;;;;5.80;5.03;;;26.90;58.60;;;;;;4980865;28;20192;-83
2023/06/25 05:19:00;;;;;;;7.13;5.50;;;27.00;58.80;;;;;;4999553;28;20480;-83
2023/06/25 05:21:26;;;;;;;6.97;5.47;;;26.90;58.80;;;;;;4997964;28;20448;-83
2023/06/25 05:24:03;;;;;;;6.17;5.70;;;26.90;58.80;;;;;;4964852;28;20410;-85
2023/06/25 05:26:31;;;;;;;6.60;6.00;;;26.90;58.90;;;;;;5012979;28;20205;-83
2023/06/25 05:29:01;;;;;;;8.17;6.57;;;26.90;59.00;;;;;;5006575;28;20520;-83
2023/06/25 05:31:32;;;;;;;6.27;5.70;;;26.90;59.10;;;;;;4981049;28;20469;-83
2023/06/25 05:33:58;;;;;;;6.20;5.80;;;26.90;59.20;;;;;;4947846;28;20436;-84
2023/06/25 05:36:24;;;;;;;6.43;5.77;;;26.90;59.20;;;;;;4978724;28;20460;-83
2023/06/25 05:38:52;;;;;;;9.33;6.30;;;26.90;59.30;;;;;;5001973;28;20564;-82
2023/06/25 05:41:20;;;;;;;6.70;6.20;;;26.90;59.30;;;;;;4999360;28;20212;-83
2023/06/25 05:43:48;;;;;;;7.97;6.70;;;26.80;59.30;;;;;;4966977;28;20436;-83
2023/06/25 05:46:14;;;;;;;6.87;5.90;;;26.80;59.30;;;;;;4985573;28;20425;-84
2023/06/25 05:48:40;;;;;;;6.27;5.77;;;26.80;59.40;;;;;;4947384;28;20480;-83
2023/06/25 05:54:22;;;;;;;6.50;6.00;;;26.80;59.40;;;;;;4979429;28;20426;-84
2023/06/25 05:56:50;;;;;;;7.73;6.33;;;26.80;59.40;;;;;;4948819;28;20453;-84
2023/06/25 05:59:16;;;;;;;7.33;6.60;;;26.80;59.50;;;;;;4952196;28;20425;-84
2023/06/25 06:01:42;;;;;;;5.80;5.40;;;26.80;59.50;;;;;;4998707;28;20428;-85
2023/06/25 06:04:10;;;;;;;6.60;6.00;;;26.80;59.50;;;;;;5015749;28;20174;-84
2023/06/25 06:06:36;;;;;;;7.00;6.30;;;26.80;59.50;;;;;;4963642;28;20195;-84
2023/06/25 06:09:02;;;;;;;6.83;6.30;;;26.80;59.60;;;;;;4959731;28;20428;-86
2023/06/25 06:11:28;;;;;;;7.93;6.57;;;26.80;59.60;;;;;;4979779;28;20284;-86
2023/06/25 06:13:54;;;;;;;7.37;6.70;;;26.80;59.60;;;;;;4997231;28;20541;-86
2023/06/25 06:16:22;;;;;;;6.53;6.03;;;26.80;59.50;;;;;;4982862;28;20428;-86
2023/06/25 06:18:48;;;;;;;6.90;6.30;;;26.80;59.60;;;;;;4966743;28;20539;-86
2023/06/25 06:21:14;;;;;;;8.00;6.90;;;26.80;59.50;;;;;;5016633;28;20444;-87
2023/06/25 06:23:42;;;;;;;7.40;6.70;;;26.80;59.40;;;;;;4999704;28;20216;-88
2023/06/25 06:26:10;;;;;;;6.80;6.20;;;26.80;59.50;;;;;;4972470;28;20450;-88
2023/06/25 06:28:38;;;;;;;6.53;6.03;;;26.80;59.50;;;;;;4965387;28;20535;-85
2023/06/25 06:31:04;;;;;;;6.93;6.37;;;26.80;59.40;;;;;;4964126;28;20436;-87
2023/06/25 06:33:31;;;;;;;8.80;6.80;;;26.70;59.40;;;;;;4963792;28;20623;-88
2023/06/25 06:35:57;;;;;;;7.20;6.13;;;26.80;59.40;;;;;;4979728;28;20438;-86
2023/06/25 06:38:23;;;;;;;7.93;6.97;;;26.80;59.30;;;;;;4969512;28;20440;-87
2023/06/25 06:40:49;;;;;;;7.20;6.60;;;26.80;59.20;;;;;;4960575;28;20455;-89
2023/06/25 06:43:18;;;;;;;6.80;6.20;;;26.80;59.10;;;;;;4944530;28;20532;-88
2023/06/25 06:45:43;;;;;;;6.70;6.10;;;26.80;59.10;;;;;;4944279;28;20461;-87
2023/06/25 06:48:11;;;;;;;7.03;6.30;;;26.80;59.00;;;;;;4976872;28;20868;-86
2023/06/25 06:50:37;;;;;;;6.97;6.40;;;26.80;59.10;;;;;;4942962;28;20555;-84
2023/06/25 06:53:06;;;;;;;7.80;7.20;;;26.80;59.00;;;;;;4959436;28;20442;-84
2023/06/25 06:55:33;;;;;;;7.03;6.33;;;26.80;58.90;;;;;;4963970;28;20977;-83
2023/06/25 06:57:59;;;;;;;7.17;6.53;;;26.80;58.90;;;;;;4991563;28;20439;-83
2023/06/25 07:00:25;;;;;;;6.60;6.10;;;26.80;58.90;;;;;;4985143;28;20460;-82
2023/06/25 07:02:55;;;;;;;7.37;6.77;;;26.80;58.90;;;;;;4995406;28;20410;-84
2023/06/25 07:05:23;;;;;;;7.03;6.33;;;26.80;58.80;;;;;;4978290;28;20432;-82
2023/06/25 07:07:49;;;;;;;7.47;6.87;;;26.80;59.40;;;;;;4983995;28;20456;-83
2023/06/25 07:10:15;;;;;;;6.60;6.03;;;26.80;58.90;;;;;;4997824;28;20431;-84
2023/06/25 07:12:43;;;;;;;6.73;6.23;;;26.80;59.50;;;;;;4997675;28;20419;-83
2023/06/25 07:15:12;;;;;;;8.10;7.40;;;26.80;58.90;;;;;;5014016;28;20440;-83
2023/06/25 07:17:38;;;;;;;7.77;7.10;;;26.80;58.90;;;;;;4981441;28;20786;-83
2023/06/25 07:20:04;;;;;;;7.57;6.93;;;26.90;59.00;;;;;;4997099;28;20539;-84
2023/06/25 07:22:36;;;;;;;8.07;7.27;;;26.90;59.00;;;;;;4983983;28;20462;-85
2023/06/25 07:25:02;;;;;;;8.40;7.77;;;26.90;59.10;;;;;;4995468;28;20444;-83
2023/06/25 07:27:27;;;;;;;7.80;7.10;;;26.90;59.20;;;;;;4962384;28;20824;-83
2023/06/25 07:29:53;;;;;;;7.20;6.57;;;26.90;59.30;;;;;;4994795;28;20923;-84
2023/06/25 07:32:21;;;;;;;7.70;7.10;;;26.90;59.30;;;;;;4977657;28;20594;-85
2023/06/25 07:34:47;;;;;;;7.70;7.00;;;26.90;59.40;;;;;;4962091;28;20806;-84
2023/06/25 07:37:15;;;;;;;7.90;7.27;;;26.90;59.40;;;;;;4977853;28;20429;-84
2023/06/25 07:39:41;;;;;;;7.03;6.53;;;27.00;59.50;;;;;;4978087;28;20424;-85
2023/06/25 07:42:07;;;;;;;8.37;7.70;;;27.00;59.50;;;;;;4981139;28;20447;-85
2023/06/25 07:44:33;;;;;;;10.83;7.20;;;27.00;59.60;;;;;;4981047;28;20181;-84
2023/06/25 07:47:01;;;;;;;7.13;6.53;;;27.00;59.50;;;;;;4997101;28;20463;-84
2023/06/25 07:49:29;;;;;;;7.20;6.67;;;27.00;59.50;;;;;;4980851;28;20456;-84
2023/06/25 07:51:55;;;;;;;7.60;7.00;;;27.00;59.70;;;;;;4980337;28;20465;-84
2023/06/25 07:54:22;;;;;;;8.37;7.50;;;27.00;59.70;;;;;;4996747;28;20490;-83
2023/06/25 07:56:52;;;;;;;8.63;7.63;;;27.10;59.80;;;;;;4981406;28;20500;-83
2023/06/25 07:59:18;;;;;;;7.70;7.10;;;27.10;59.80;;;;;;5009685;28;20551;-85
2023/06/25 08:01:48;;;;;;;8.10;7.50;;;27.10;59.90;;;;;;4995528;28;20214;-83
2023/06/25 08:04:42;;;;;;;7.90;7.20;;;27.10;59.90;;;;;;5004360;28;20547;-86
2023/06/25 08:07:09;;;;;;;8.27;7.57;;;27.10;59.90;;;;;;4985683;28;20540;-85
2023/06/25 08:09:37;;;;;;;7.67;7.13;;;27.20;60.00;;;;;;4994529;28;20456;-82
2023/06/25 08:12:03;;;;;;;8.27;7.50;;;27.20;59.90;;;;;;4980910;28;21026;-81
2023/06/25 08:14:29;;;;;;;8.10;7.60;;;27.20;59.90;;;;;;4980480;28;20188;-82
2023/06/25 08:16:57;;;;;;;7.87;7.23;;;27.20;59.80;;;;;;4996638;28;20443;-81
2023/06/25 08:19:23;;;;;;;8.00;7.30;;;27.30;59.80;;;;;;4979845;28;21034;-81
2023/06/25 08:21:49;;;;;;;8.30;7.70;;;27.30;59.80;;;;;;4979787;28;20193;-82
2023/06/25 08:24:17;;;;;;;8.30;7.60;;;27.30;59.80;;;;;;4996423;28;20431;-83
2023/06/25 08:26:43;;;;;;;8.40;7.80;;;27.30;59.80;;;;;;4996108;28;20743;-81
2023/06/25 08:29:11;;;;;;;7.73;7.13;;;27.40;59.90;;;;;;4990638;28;20433;-81
2023/06/25 08:31:37;;;;;;;8.03;7.43;;;27.40;59.80;;;;;;4969668;28;20449;-81
2023/06/25 08:34:05;;;;;;;8.20;7.40;;;27.40;59.70;;;;;;4978982;28;20424;-81
2023/06/25 08:36:31;;;;;;;8.00;7.40;;;27.40;59.70;;;;;;5014198;28;20416;-81
2023/06/25 08:38:57;;;;;;;8.93;7.67;;;27.40;59.70;;;;;;4995385;28;20417;-81
2023/06/25 08:41:28;;;;;;;8.20;7.60;;;27.50;59.70;;;;;;4961344;28;20185;-82
2023/06/25 08:43:54;;;;;;;8.63;7.93;;;27.50;59.70;;;;;;4961647;28;20218;-80
2023/06/25 08:46:27;;;;;;;8.43;7.70;;;27.50;59.70;;;;;;4982610;28;20528;-81
2023/06/25 08:48:54;;;;;;;8.17;7.57;;;27.50;59.70;;;;;;4992916;28;20516;-81
2023/06/25 08:51:24;;;;;;;7.73;7.13;;;27.60;59.70;;;;;;4996321;28;20952;-81
2023/06/25 08:53:57;;;;;;;7.77;7.20;;;27.60;59.50;;;;;;5013700;28;20421;-81
2023/06/25 08:56:22;;;;;;;8.27;7.67;;;27.60;59.50;;;;;;4996739;28;20432;-81
2023/06/25 08:58:48;;;;;;;7.50;6.87;;;27.60;59.40;;;;;;4996411;28;20455;-81
2023/06/25 09:01:18;;;;;;;8.03;7.43;;;27.70;59.30;;;;;;4981075;28;20213;-81
2023/06/25 09:03:44;;;;;;;8.10;7.50;;;27.70;59.20;;;;;;5013792;28;20421;-81
2023/06/25 09:06:16;;;;;;;8.90;8.20;;;27.70;59.10;;;;;;4980692;28;20563;-81
2023/06/25 09:08:43;;;;;;;8.63;8.00;;;27.70;59.10;;;;;;4988222;28;20525;-81
2023/06/25 09:11:16;;;;;;;8.00;7.37;;;27.70;59.00;;;;;;4941975;28;20438;-80
2023/06/25 09:13:43;;;;;;;7.83;7.23;;;27.80;59.00;;;;;;4943521;28;20454;-80
2023/06/25 09:16:10;;;;;;;7.50;6.90;;;27.80;59.00;;;;;;4961240;28;20474;-81
2023/06/25 09:18:37;;;;;;;7.90;7.30;;;27.80;58.90;;;;;;4944918;28;20441;-80
2023/06/25 09:21:05;;;;;;;8.50;7.80;;;27.90;58.90;;;;;;4961338;28;20418;-81
2023/06/25 09:23:31;;;;;;;8.43;7.63;;;27.90;58.80;;;;;;4961097;28;20945;-81
2023/06/25 09:25:58;;;;;;;8.00;7.40;;;27.90;58.70;;;;;;4977836;28;20866;-81
2023/06/25 09:28:26;;;;;;;8.50;7.80;;;27.90;58.60;;;;;;4961045;28;20497;-80
2023/06/25 09:31:00;;;;;;;8.10;7.33;;;28.00;58.60;;;;;;4977954;28;20453;-80
2023/06/25 09:33:35;;;;;;;8.03;7.33;;;28.00;58.60;;;;;;4978327;28;20790;-81
2023/06/25 09:36:04;;;;;;;7.73;7.13;;;28.00;58.60;;;;;;4961223;28;20536;-81
2023/06/25 09:38:31;;;;;;;7.27;6.73;;;28.00;58.60;;;;;;4967933;28;20506;-82
2023/06/25 09:41:01;;;;;;;8.00;7.40;;;28.00;58.60;;;;;;5000090;28;20432;-81
2023/06/25 09:43:27;;;;;;;7.77;7.10;;;28.10;58.60;;;;;;4999607;28;20409;-81
2023/06/25 09:45:54;;;;;;;8.10;7.40;;;28.10;58.50;;;;;;5016785;28;20765;-81
2023/06/25 09:48:24;;;;;;;8.63;7.90;;;28.20;58.40;;;;;;4983257;28;20479;-81
2023/06/25 09:50:56;;;;;;;7.60;7.00;;;28.20;58.30;;;;;;5016670;28;20413;-80
2023/06/25 09:53:28;;;;;;;7.67;7.17;;;28.20;58.20;;;;;;4999255;28;20443;-81
2023/06/25 09:55:55;;;;;;;8.57;7.87;;;28.30;58.20;;;;;;4998997;28;20409;-81
2023/06/25 09:58:22;;;;;;;8.73;7.90;;;28.30;58.10;;;;;;5016467;28;20470;-82
2023/06/25 10:00:51;;;;;;;8.00;7.40;;;28.40;57.80;;;;;;4993539;28;20456;-81
2023/06/25 10:03:18;;;;;;;7.77;7.23;;;28.40;57.70;;;;;;4996777;28;20921;-80
2023/06/25 10:05:47;;;;;;;7.83;7.13;;;28.40;57.50;;;;;;4988756;28;20479;-81
2023/06/25 10:08:13;;;;;;;8.63;7.97;;;28.50;57.60;;;;;;4948007;28;20479;-80
2023/06/25 10:10:39;;;;;;;8.80;8.10;;;28.50;57.30;;;;;;4996861;28;20435;-81
2023/06/25 10:13:08;;;;;;;8.57;7.87;;;28.60;57.20;;;;;;4996734;28;20185;-80
2023/06/25 10:15:36;;;;;;;8.20;7.53;;;28.60;57.10;;;;;;4996520;28;20445;-81
2023/06/25 10:18:06;;;;;;;8.77;7.93;;;28.60;56.90;;;;;;4979505;28;20453;-80
2023/06/25 10:20:37;;;;;;;8.00;7.40;;;28.70;57.10;;;;;;4979841;28;20414;-81
2023/06/25 10:23:09;;;;;;;7.77;7.20;;;28.70;56.90;;;;;;4963732;28;20567;-82
2023/06/25 10:25:37;;;;;;;8.27;7.67;;;28.70;56.70;;;;;;4963307;28;20434;-81
2023/06/25 10:28:15;;;;;;;7.40;6.90;;;28.80;56.50;;;;;;4947296;28;20527;-82
2023/06/25 10:30:50;;;;;;;7.90;7.30;;;28.80;56.60;;;;;;4979328;28;20428;-82
2023/06/25 10:33:17;;;;;;;7.77;7.17;;;28.80;56.70;;;;;;4963368;28;20424;-83
2023/06/25 10:35:47;;;;;;;9.27;8.47;;;28.90;56.60;;;;;;4947381;28;20469;-82
2023/06/25 10:38:17;;;;;;;7.80;7.20;;;28.90;56.50;;;;;;4971057;28;20425;-81
2023/06/25 10:40:43;;;;;;;8.20;7.60;;;29.00;56.40;;;;;;4967638;28;20449;-81
2023/06/25 10:43:19;;;;;;;7.73;7.13;;;29.00;56.60;;;;;;4977210;28;20433;-82
2023/06/25 10:46:43;;;;;;;8.10;7.50;;;29.00;56.50;;;;;;4936907;28;20200;-81
2023/06/25 10:49:39;;;;;;;8.20;7.60;;;29.10;56.40;;;;;;4954812;28;20452;-82
2023/06/25 10:52:07;;;;;;;8.10;7.50;;;29.10;56.50;;;;;;4995625;28;20428;-82
2023/06/25 10:54:36;;;;;;;8.60;7.90;;;29.20;56.50;;;;;;4996213;28;20852;-82
2023/06/25 10:57:16;;;;;;;7.53;7.03;;;29.20;56.30;;;;;;4962702;28;20424;-82
2023/06/25 11:00:09;;;;;;;7.87;7.27;;;29.30;56.20;;;;;;4962747;28;20436;-83
2023/06/25 11:02:37;;;;;;;7.20;6.60;;;29.30;56.20;;;;;;4989920;28;20456;-82
2023/06/25 11:05:07;;;;;;;7.90;7.30;;;29.30;56.10;;;;;;4987934;28;20962;-82
2023/06/25 11:07:35;;;;;;;8.40;7.70;;;29.40;56.10;;;;;;4978804;28;20552;-82
2023/06/25 11:10:01;;;;;;;7.97;7.37;;;29.40;56.00;;;;;;5006108;28;20981;-82
2023/06/25 11:12:29;;;;;;;8.13;7.53;;;29.50;55.90;;;;;;5007735;28;20438;-81
2023/06/25 11:14:55;;;;;;;8.13;7.47;;;29.50;55.90;;;;;;5005000;28;20448;-81
2023/06/25 11:17:21;;;;;;;7.80;7.20;;;29.50;55.80;;;;;;4995543;28;20454;-81
2023/06/25 11:19:56;;;;;;;8.00;7.40;;;29.60;55.80;;;;;;4980093;28;20698;-83
2023/06/25 11:22:26;;;;;;;7.83;7.30;;;29.60;55.70;;;;;;4968699;28;20452;-81
2023/06/25 11:24:52;;;;;;;8.23;6.93;;;29.70;55.70;;;;;;5014945;28;20424;-82
2023/06/25 11:27:25;;;;;;;8.13;7.53;;;29.70;55.70;;;;;;4997695;28;20820;-82
2023/06/25 11:29:54;;;;;;;8.20;7.53;;;29.70;55.60;;;;;;4998001;28;20408;-82
2023/06/25 11:32:23;;;;;;;7.70;7.10;;;29.80;55.40;;;;;;5015189;28;20500;-83
2023/06/25 11:34:51;;;;;;;8.07;7.47;;;29.80;55.50;;;;;;4997890;28;20436;-81
2023/06/25 11:37:22;;;;;;;7.77;7.20;;;29.90;55.50;;;;;;4978945;28;20943;-82
2023/06/25 11:39:58;;;;;;;7.47;6.87;;;29.90;55.40;;;;;;4994853;28;20791;-82
2023/06/25 11:42:25;;;;;;;8.17;7.57;;;29.90;55.50;;;;;;4994859;28;20413;-83
2023/06/25 11:45:05;;;;;;;7.60;7.00;;;29.90;55.50;;;;;;4994684;28;20452;-83
2023/06/25 11:47:50;;;;;;;8.40;7.70;;;30.00;55.50;;;;;;4961390;28;20464;-83
2023/06/25 11:50:17;;;;;;;9.17;8.33;;;30.00;55.50;;;;;;4978245;28;20743;-82
2023/06/25 11:52:44;;;;;;;9.03;8.33;;;30.00;55.30;;;;;;4977555;28;20476;-82
2023/06/25 11:55:11;;;;;;;8.30;7.70;;;30.10;55.40;;;;;;4961419;28;20480;-82
2023/06/25 11:57:40;;;;;;;7.93;7.23;;;30.10;54.70;;;;;;4977495;28;20456;-83
2023/06/25 12:00:07;;;;;;;10.07;8.03;;;30.10;54.10;;;;;;4977242;28;20436;-82
2023/06/25 12:02:33;;;;;;;9.50;7.13;;;30.20;54.20;;;;;;4977566;28;20440;-82
2023/06/25 12:04:59;;;;;;;8.27;7.47;;;30.40;54.50;;;;;;4961492;28;20429;-82
2023/06/25 12:07:25;;;;;;;7.30;6.70;;;30.40;54.30;;;;;;4979420;28;20357;-82
2023/06/25 12:09:52;;;;;;;9.20;8.30;;;30.50;54.50;;;;;;5014327;28;20181;-82
2023/06/25 12:12:20;;;;;;;8.53;7.70;;;30.60;54.60;;;;;;4997149;28;20467;-81
2023/06/25 12:14:47;;;;;;;8.10;7.30;;;30.60;54.50;;;;;;5006130;28;20909;-82
2023/06/25 12:17:16;;;;;;;9.03;8.33;;;30.70;54.40;;;;;;5014396;28;20419;-82
2023/06/25 12:19:42;;;;;;;8.10;7.40;;;30.60;54.30;;;;;;4996812;28;20463;-82
2023/06/25 12:22:08;;;;;;;7.97;7.37;;;30.70;54.20;;;;;;4997525;28;20424;-83
2023/06/25 12:24:34;;;;;;;7.90;7.30;;;30.70;54.10;;;;;;4997274;28;20507;-81
2023/06/25 12:27:00;;;;;;;9.20;8.33;;;30.70;53.90;;;;;;4996355;28;20602;-82
2023/06/25 12:29:29;;;;;;;8.00;7.40;;;30.80;53.80;;;;;;5010610;28;20420;-82
2023/06/25 12:31:57;;;;;;;8.53;7.93;;;30.80;54.00;;;;;;4980906;28;20201;-82
2023/06/25 12:34:23;;;;;;;8.40;7.70;;;30.80;54.00;;;;;;4997170;28;20579;-82
2023/06/25 12:36:51;;;;;;;8.73;7.97;;;30.80;53.90;;;;;;5014312;28;20444;-83
2023/06/25 12:39:26;;;;;;;8.20;7.60;;;30.90;54.10;;;;;;4997271;28;20486;-82
2023/06/25 12:41:54;;;;;;;8.47;7.80;;;30.90;54.20;;;;;;5007099;28;20496;-84
2023/06/25 12:44:21;;;;;;;8.27;7.57;;;30.90;54.20;;;;;;4977309;28;20841;-83
2023/06/25 12:46:49;;;;;;;7.97;7.37;;;30.90;54.20;;;;;;4984747;28;20197;-82
2023/06/25 12:49:15;;;;;;;8.57;7.77;;;30.90;54.20;;;;;;5030177;28;20779;-84
2023/06/25 12:51:41;;;;;;;8.23;7.53;;;31.00;54.20;;;;;;5008070;28;20448;-83
2023/06/25 12:54:07;;;;;;;8.53;7.63;;;31.00;54.30;;;;;;5000777;28;20788;-82
2023/06/25 12:56:35;;;;;;;8.73;8.10;;;31.00;54.20;;;;;;5018088;28;20146;-82